createdAt,value
2017-11-22T00:02:17.068Z,91.19
2017-11-22T00:04:47.126Z,91.09
2017-11-22T00:07:14.936Z,91.21
2017-11-22T00:09:42.534Z,91.29
2017-11-22T00:12:10.117Z,91.26
2017-11-22T00:14:37.739Z,91.24
2017-11-22T00:17:05.322Z,91.15
2017-11-22T00:19:32.948Z,91.16
2017-11-22T00:22:00.562Z,91.25
2017-11-22T00:24:28.160Z,91.16
2017-11-22T00:26:55.765Z,91.08
2017-11-22T00:29:23.350Z,91.17
2017-11-22T00:31:50.995Z,91.08
2017-11-22T00:34:18.579Z,91.06
2017-11-22T00:36:46.175Z,91.16
2017-11-22T00:39:13.798Z,91.10
2017-11-22T00:41:41.390Z,91.14
2017-11-22T00:44:12.146Z,91.25
2017-11-22T00:46:39.735Z,91.36
2017-11-22T00:49:07.616Z,91.49
2017-11-22T00:51:35.184Z,91.55
2017-11-22T00:54:02.862Z,91.48
2017-11-22T00:56:30.457Z,91.43
2017-11-22T00:58:58.052Z,91.67
2017-11-22T01:01:25.692Z,91.80
2017-11-22T01:03:53.264Z,91.71
2017-11-22T01:06:20.837Z,91.74
2017-11-22T01:08:48.456Z,91.77
2017-11-22T01:11:23.720Z,91.83
2017-11-22T01:13:51.717Z,91.80
2017-11-22T01:16:19.300Z,91.63
2017-11-22T01:18:46.920Z,91.54
2017-11-22T01:21:20.878Z,91.57
2017-11-22T01:23:48.430Z,91.78
2017-11-22T01:26:19.529Z,91.97
2017-11-22T01:28:47.106Z,92.02
2017-11-22T01:31:14.677Z,91.98
2017-11-22T01:33:42.294Z,92.12
2017-11-22T01:36:09.880Z,92.15
2017-11-22T01:38:40.616Z,92.12
2017-11-22T01:41:21.097Z,92.02
2017-11-22T01:43:48.690Z,92.07
2017-11-22T01:46:16.281Z,92.22
2017-11-22T01:48:43.846Z,92.20
2017-11-22T01:51:11.423Z,92.18
2017-11-22T01:53:38.991Z,92.28
2017-11-22T01:56:06.596Z,92.42
2017-11-22T01:58:34.180Z,92.63
2017-11-22T02:01:01.801Z,92.65
2017-11-22T02:03:35.874Z,92.76
2017-11-22T02:06:03.491Z,92.72
2017-11-22T02:08:31.064Z,92.75
2017-11-22T02:10:58.668Z,92.82
2017-11-22T02:13:26.269Z,92.80
2017-11-22T02:15:53.882Z,92.92
2017-11-22T02:18:22.224Z,92.88
2017-11-22T02:20:49.819Z,92.98
2017-11-22T02:23:17.424Z,93.01
2017-11-22T02:25:47.158Z,92.87
2017-11-22T02:28:14.739Z,92.84
2017-11-22T02:30:42.388Z,92.77
2017-11-22T02:33:10.054Z,92.56
2017-11-22T02:35:37.653Z,92.50
2017-11-22T02:38:05.243Z,92.39
2017-11-22T02:40:33.176Z,92.26
2017-11-22T02:43:00.838Z,92.36
2017-11-22T02:45:28.403Z,92.46
2017-11-22T02:47:56.017Z,92.35
2017-11-22T02:50:23.611Z,92.40
2017-11-22T02:52:51.246Z,92.30
2017-11-22T02:55:18.878Z,92.43
2017-11-22T02:57:46.491Z,92.43
2017-11-22T03:00:14.459Z,92.42
2017-11-22T03:02:42.084Z,92.45
2017-11-22T03:05:12.599Z,92.67
2017-11-22T03:07:40.185Z,92.51
2017-11-22T03:10:07.763Z,92.32
2017-11-22T03:12:35.352Z,92.42
2017-11-22T03:15:02.982Z,92.29
2017-11-22T03:17:30.551Z,92.27
2017-11-22T03:20:01.860Z,92.27
2017-11-22T03:22:29.469Z,92.27
2017-11-22T03:24:57.050Z,92.38
2017-11-22T03:27:25.506Z,92.54
2017-11-22T03:29:53.103Z,92.90
2017-11-22T03:32:20.673Z,92.96
2017-11-22T03:34:48.273Z,93.06
2017-11-22T03:37:17.042Z,93.20
2017-11-22T03:39:44.663Z,93.25
2017-11-22T03:42:12.242Z,93.03
2017-11-22T03:44:39.847Z,92.90
2017-11-22T03:47:07.467Z,92.99
2017-11-22T03:49:40.779Z,93.05
2017-11-22T03:52:13.899Z,92.88
2017-11-22T03:54:41.492Z,92.71
2017-11-22T03:57:09.082Z,92.85
2017-11-22T03:59:36.655Z,92.92
2017-11-22T04:02:06.193Z,93.12
2017-11-22T04:04:34.571Z,93.25
2017-11-22T04:07:16.902Z,93.22
2017-11-22T04:09:44.487Z,93.20
2017-11-22T04:12:12.066Z,93.42
2017-11-22T04:14:39.641Z,93.58
2017-11-22T04:17:07.257Z,93.62
2017-11-22T04:19:39.665Z,93.61
2017-11-22T04:22:07.344Z,93.61
2017-11-22T04:24:34.926Z,93.77
2017-11-22T04:27:02.499Z,93.80
2017-11-22T04:29:30.162Z,93.48
2017-11-22T04:32:18.757Z,93.34
2017-11-22T04:34:46.379Z,93.36
2017-11-22T04:37:13.965Z,93.38
2017-11-22T04:39:41.544Z,93.63
2017-11-22T04:42:09.141Z,93.61
2017-11-22T04:44:36.708Z,93.70
2017-11-22T04:47:04.451Z,93.59
2017-11-22T04:49:32.037Z,93.60
2017-11-22T04:51:59.655Z,93.60
2017-11-22T04:54:37.578Z,93.65
2017-11-22T04:57:05.476Z,93.72
2017-11-22T04:59:33.075Z,93.73
2017-11-22T05:02:21.170Z,93.74
2017-11-22T05:04:51.298Z,93.72
2017-11-22T05:07:18.881Z,93.83
2017-11-22T05:09:46.479Z,93.77
2017-11-22T05:12:14.060Z,93.77
2017-11-22T05:14:41.639Z,93.68
2017-11-22T05:17:12.287Z,93.58
2017-11-22T05:19:39.905Z,93.43
2017-11-22T05:22:07.478Z,93.28
2017-11-22T05:24:35.073Z,93.64
2017-11-22T05:27:05.078Z,93.70
2017-11-22T05:29:32.662Z,93.93
2017-11-22T05:32:00.558Z,93.97
2017-11-22T05:34:28.193Z,93.75
2017-11-22T05:36:55.807Z,93.60
2017-11-22T05:39:26.593Z,93.81
2017-11-22T05:41:54.180Z,93.46
2017-11-22T05:44:21.776Z,93.34
2017-11-22T05:46:49.372Z,93.56
2017-11-22T05:49:16.940Z,93.13
2017-11-22T05:51:44.507Z,93.47
2017-11-22T05:54:13.077Z,93.71
2017-11-22T05:56:41.712Z,93.71
2017-11-22T06:01:41.635Z,93.82
2017-11-22T06:04:09.231Z,93.82
2017-11-22T06:06:36.823Z,93.87
2017-11-22T06:09:04.427Z,93.67
2017-11-22T06:11:32.039Z,93.67
2017-11-22T06:13:59.623Z,93.44
2017-11-22T06:16:27.192Z,93.57
2017-11-22T06:18:54.800Z,93.79
2017-11-22T06:21:37.504Z,93.87
2017-11-22T06:24:05.096Z,93.76
2017-11-22T06:26:32.668Z,93.80
2017-11-22T06:29:00.316Z,93.87
2017-11-22T06:31:27.950Z,93.83
2017-11-22T06:33:55.531Z,93.73
2017-11-22T06:39:11.644Z,93.69
2017-11-22T06:41:39.222Z,93.73
2017-11-22T06:46:39.493Z,93.97
2017-11-22T06:49:07.693Z,94.11
2017-11-22T06:51:35.577Z,94.01
2017-11-22T06:54:03.160Z,93.97
2017-11-22T06:56:38.264Z,94.09
2017-11-22T06:59:05.841Z,94.14
2017-11-22T07:01:33.417Z,94.20
2017-11-22T07:04:01.021Z,94.19
2017-11-22T07:06:28.654Z,94.26
2017-11-22T07:08:56.281Z,94.37
2017-11-22T07:11:23.836Z,94.40
2017-11-22T07:13:51.523Z,94.38
2017-11-22T07:16:24.532Z,94.29
2017-11-22T07:18:52.158Z,94.23
2017-11-22T07:21:27.098Z,94.21
2017-11-22T07:23:55.048Z,94.24
2017-11-22T07:26:26.116Z,94.18
2017-11-22T07:28:59.899Z,94.29
2017-11-22T07:31:27.476Z,94.65
2017-11-22T07:33:55.070Z,94.69
2017-11-22T07:36:28.245Z,94.85
2017-11-22T07:38:55.795Z,94.88
2017-11-22T07:41:26.795Z,94.86
2017-11-22T07:43:54.364Z,94.90
2017-11-22T07:46:21.998Z,94.78
2017-11-22T07:48:49.591Z,94.70
2017-11-22T07:51:24.430Z,94.77
2017-11-22T07:53:52.008Z,94.78
2017-11-22T07:56:35.004Z,94.76
2017-11-22T07:59:06.592Z,94.80
2017-11-22T08:01:34.201Z,94.78
2017-11-22T08:04:08.824Z,94.76
2017-11-22T08:06:40.224Z,94.94
2017-11-22T08:09:07.822Z,94.99
2017-11-22T08:11:35.402Z,94.99
2017-11-22T08:14:03.041Z,94.79
2017-11-22T08:16:36.972Z,94.39
2017-11-22T08:19:04.640Z,94.06
2017-11-22T08:21:32.256Z,93.64
2017-11-22T08:23:59.839Z,93.06
2017-11-22T08:26:27.474Z,92.43
2017-11-22T08:28:55.086Z,91.35
2017-11-22T08:31:22.700Z,90.91
2017-11-22T08:33:50.301Z,90.76
2017-11-22T08:36:17.900Z,90.43
2017-11-22T08:38:45.503Z,90.32
2017-11-22T08:41:13.084Z,89.78
2017-11-22T08:43:44.589Z,88.90
2017-11-22T08:46:12.202Z,88.48
2017-11-22T08:48:41.454Z,88.34
2017-11-22T08:51:09.087Z,88.01
2017-11-22T08:53:36.713Z,87.15
2017-11-22T08:56:09.809Z,86.33
2017-11-22T08:58:37.425Z,86.53
2017-11-22T09:01:05.023Z,86.12
2017-11-22T09:03:38.117Z,86.43
2017-11-22T09:06:11.115Z,86.16
2017-11-22T09:08:38.846Z,85.98
2017-11-22T09:11:06.431Z,85.73
2017-11-22T09:13:34.031Z,85.63
2017-11-22T09:16:01.640Z,85.59
2017-11-22T09:18:39.313Z,85.44
2017-11-22T09:21:09.694Z,85.25
2017-11-22T09:23:37.481Z,84.95
2017-11-22T09:26:05.395Z,84.93
2017-11-22T09:28:33.014Z,84.71
2017-11-22T09:31:06.162Z,84.78
2017-11-22T09:33:33.754Z,84.57
2017-11-22T09:36:01.346Z,84.42
2017-11-22T09:38:28.963Z,84.61
2017-11-22T09:40:56.536Z,84.23
2017-11-22T09:43:27.676Z,83.91
2017-11-22T09:46:01.835Z,83.46
2017-11-22T09:48:29.478Z,82.76
2017-11-22T09:50:57.052Z,81.82
2017-11-22T09:53:24.632Z,80.97
2017-11-22T09:55:52.242Z,80.37
2017-11-22T09:58:21.283Z,80.69
2017-11-22T10:00:48.990Z,80.17
2017-11-22T10:03:19.816Z,80.33
2017-11-22T10:05:47.420Z,79.89
2017-11-22T10:08:14.991Z,79.41
2017-11-22T10:10:42.568Z,79.21
2017-11-22T10:13:10.168Z,78.24
2017-11-22T10:15:37.749Z,78.67
2017-11-22T10:18:11.314Z,77.92
2017-11-22T10:20:44.487Z,76.51
2017-11-22T10:23:17.607Z,75.65
2017-11-22T10:25:45.176Z,75.66
2017-11-22T10:28:12.790Z,76.14
2017-11-22T10:30:44.377Z,75.63
2017-11-22T10:33:16.954Z,75.91
2017-11-22T10:35:44.593Z,76.54
2017-11-22T10:38:15.708Z,76.45
2017-11-22T10:40:43.295Z,75.86
2017-11-22T10:43:11.752Z,76.40
2017-11-22T10:45:39.335Z,75.90
2017-11-22T10:48:06.927Z,74.83
2017-11-22T10:50:37.933Z,73.95
2017-11-22T10:53:05.540Z,74.39
2017-11-22T10:55:33.130Z,74.00
2017-11-22T10:58:00.705Z,74.29
2017-11-22T11:00:28.294Z,73.81
2017-11-22T11:02:55.907Z,72.33
2017-11-22T11:05:23.489Z,72.11
2017-11-22T11:07:51.407Z,71.34
2017-11-22T11:10:19.036Z,71.22
2017-11-22T11:12:46.642Z,71.08
2017-11-22T11:15:15.411Z,70.61
2017-11-22T11:17:43.012Z,70.13
2017-11-22T11:20:10.621Z,69.54
2017-11-22T11:22:38.241Z,68.61
2017-11-22T11:25:05.829Z,68.71
2017-11-22T11:27:33.415Z,68.78
2017-11-22T11:30:01.028Z,68.15
2017-11-22T11:32:34.632Z,67.09
2017-11-22T11:35:02.293Z,66.22
2017-11-22T11:37:29.869Z,67.17
2017-11-22T11:39:57.466Z,66.44
2017-11-22T11:42:25.076Z,65.86
2017-11-22T11:44:52.640Z,65.44
2017-11-22T11:47:20.261Z,64.81
2017-11-22T11:49:53.596Z,64.24
2017-11-22T11:52:21.202Z,63.71
2017-11-22T11:54:48.794Z,63.02
2017-11-22T11:57:16.395Z,63.03
2017-11-22T11:59:44.006Z,62.65
2017-11-22T12:02:11.595Z,62.81
2017-11-22T12:04:39.195Z,62.97
2017-11-22T12:07:06.768Z,63.43
2017-11-22T12:09:34.410Z,62.48
2017-11-22T12:12:01.998Z,62.33
2017-11-22T12:14:29.583Z,60.94
2017-11-22T12:16:57.195Z,61.32
2017-11-22T12:19:24.890Z,60.17
2017-11-22T12:21:58.017Z,62.10
2017-11-22T12:24:29.493Z,62.04
2017-11-22T12:26:57.107Z,60.74
2017-11-22T12:29:25.032Z,61.24
2017-11-22T12:31:52.698Z,60.95
2017-11-22T12:34:20.276Z,60.07
2017-11-22T12:36:47.864Z,59.64
2017-11-22T12:39:15.503Z,59.62
2017-11-22T12:41:43.078Z,59.91
2017-11-22T12:44:19.257Z,58.58
2017-11-22T12:46:46.845Z,58.75
2017-11-22T12:49:14.429Z,59.02
2017-11-22T12:51:42.086Z,58.73
2017-11-22T12:54:10.376Z,59.43
2017-11-22T12:56:38.493Z,58.14
2017-11-22T12:59:06.085Z,57.95
2017-11-22T13:01:34.191Z,58.81
2017-11-22T13:04:01.780Z,59.85
2017-11-22T13:06:32.928Z,59.60
2017-11-22T13:09:00.517Z,59.20
2017-11-22T13:11:33.647Z,59.62
2017-11-22T13:14:06.703Z,59.62
2017-11-22T13:16:34.287Z,59.30
2017-11-22T13:19:02.608Z,59.73
2017-11-22T13:21:30.213Z,60.12
2017-11-22T13:23:57.798Z,59.50
2017-11-22T13:26:25.409Z,60.06
2017-11-22T13:28:52.998Z,59.75
2017-11-22T13:31:20.786Z,59.46
2017-11-22T13:33:48.359Z,59.10
2017-11-22T13:36:15.978Z,60.11
2017-11-22T13:38:43.590Z,60.29
2017-11-22T13:41:11.193Z,60.22
2017-11-22T13:43:41.706Z,59.34
2017-11-22T13:46:09.277Z,59.81
2017-11-22T13:48:36.864Z,61.38
2017-11-22T13:51:10.979Z,60.21
2017-11-22T13:53:38.586Z,60.23
2017-11-22T13:56:06.149Z,59.89
2017-11-22T13:58:33.742Z,60.21
2017-11-22T14:01:01.358Z,59.80
2017-11-22T14:03:28.972Z,59.66
2017-11-22T14:05:56.625Z,59.64
2017-11-22T14:08:24.238Z,59.80
2017-11-22T14:10:51.862Z,60.07
2017-11-22T14:13:19.416Z,59.91
2017-11-22T14:15:47.001Z,59.87
2017-11-22T14:18:14.596Z,59.27
2017-11-22T14:20:42.161Z,59.06
2017-11-22T14:23:09.787Z,58.38
2017-11-22T14:25:37.411Z,58.28
2017-11-22T14:28:05.305Z,58.25
2017-11-22T14:30:32.881Z,58.43
2017-11-22T14:33:00.463Z,58.13
2017-11-22T14:35:28.072Z,58.99
2017-11-22T14:37:55.652Z,59.04
2017-11-22T14:40:23.270Z,58.99
2017-11-22T14:42:50.850Z,59.08
2017-11-22T14:45:18.447Z,59.05
2017-11-22T14:47:46.079Z,59.62
2017-11-22T14:50:13.865Z,59.68
2017-11-22T14:52:41.502Z,60.12
2017-11-22T14:55:09.247Z,60.56
2017-11-22T14:57:36.814Z,60.88
2017-11-22T15:00:04.407Z,61.21
2017-11-22T15:02:31.986Z,61.58
2017-11-22T15:04:59.636Z,62.21
2017-11-22T15:07:27.319Z,62.98
2017-11-22T15:09:54.932Z,63.29
2017-11-22T15:12:23.298Z,63.90
2017-11-22T15:14:50.898Z,63.96
2017-11-22T15:17:19.022Z,64.66
2017-11-22T15:19:46.629Z,65.31
2017-11-22T15:22:14.252Z,65.94
2017-11-22T15:24:43.585Z,66.67
2017-11-22T15:27:11.199Z,67.82
2017-11-22T15:29:38.805Z,68.77
2017-11-22T15:32:06.372Z,68.93
2017-11-22T15:34:33.981Z,70.10
2017-11-22T15:37:01.567Z,70.28
2017-11-22T15:39:29.207Z,70.72
2017-11-22T15:41:56.801Z,71.20
2017-11-22T15:44:24.475Z,71.99
2017-11-22T15:46:55.663Z,72.51
2017-11-22T15:49:23.238Z,72.89
2017-11-22T15:51:50.853Z,73.42
2017-11-22T15:54:18.443Z,73.81
2017-11-22T15:56:46.085Z,74.09
2017-11-22T15:59:14.037Z,74.42
2017-11-22T16:01:41.628Z,74.78
2017-11-22T16:04:09.233Z,74.96
2017-11-22T16:06:36.845Z,75.44
2017-11-22T16:09:04.454Z,75.72
2017-11-22T16:11:32.063Z,76.34
2017-11-22T16:13:59.655Z,76.73
2017-11-22T16:16:27.249Z,77.26
2017-11-22T16:18:54.900Z,77.65
2017-11-22T16:21:22.498Z,77.90
2017-11-22T16:23:50.111Z,78.05
2017-11-22T16:26:18.823Z,78.25
2017-11-22T16:28:46.462Z,78.61
2017-11-22T16:31:14.065Z,78.83
2017-11-22T16:33:41.675Z,78.95
2017-11-22T16:36:09.302Z,79.16
2017-11-22T16:38:37.693Z,79.40
2017-11-22T16:41:05.818Z,79.72
2017-11-22T16:43:33.407Z,80.03
2017-11-22T16:46:01.073Z,80.09
2017-11-22T16:48:28.672Z,80.43
2017-11-22T16:50:56.323Z,80.51
2017-11-22T16:53:25.581Z,80.66
2017-11-22T16:55:53.202Z,80.83
2017-11-22T16:58:20.833Z,81.11
2017-11-22T17:00:48.468Z,81.66
2017-11-22T17:03:16.067Z,81.72
2017-11-22T17:05:43.680Z,82.54
2017-11-22T17:08:11.286Z,82.94
2017-11-22T17:10:38.896Z,83.37
2017-11-22T17:13:06.530Z,83.78
2017-11-22T17:15:34.140Z,84.02
2017-11-22T17:18:03.201Z,84.20
2017-11-22T17:20:30.853Z,84.38
2017-11-22T17:22:58.456Z,84.48
2017-11-22T17:25:26.130Z,84.61
2017-11-22T17:27:53.758Z,85.10
2017-11-22T17:30:21.373Z,85.30
2017-11-22T17:32:49.327Z,85.38
2017-11-22T17:35:16.954Z,85.51
2017-11-22T17:37:44.568Z,85.61
2017-11-22T17:40:12.207Z,85.76
2017-11-22T17:42:39.821Z,85.67
2017-11-22T17:45:07.485Z,85.79
2017-11-22T17:47:35.122Z,85.79
2017-11-22T17:50:02.773Z,85.92
2017-11-22T17:52:30.558Z,85.98
2017-11-22T17:54:58.576Z,86.10
2017-11-22T17:57:26.222Z,86.18
2017-11-22T17:59:53.832Z,86.39
2017-11-22T18:02:21.494Z,86.37
2017-11-22T18:04:49.131Z,86.25
2017-11-22T18:07:16.765Z,86.53
2017-11-22T18:09:44.390Z,86.69
2017-11-22T18:12:13.925Z,86.46
2017-11-22T18:14:41.572Z,86.40
2017-11-22T18:17:09.230Z,86.57
2017-11-22T18:19:37.407Z,86.75
2017-11-22T18:22:05.072Z,86.95
2017-11-22T18:24:34.865Z,87.28
2017-11-22T18:27:02.490Z,87.08
2017-11-22T18:29:30.410Z,86.96
2017-11-22T18:31:58.071Z,86.95
2017-11-22T18:34:27.077Z,87.06
2017-11-22T18:36:54.742Z,87.43
2017-11-22T18:39:22.373Z,87.55
2017-11-22T18:41:50.086Z,87.69
2017-11-22T18:44:17.767Z,87.46
2017-11-22T18:46:45.440Z,87.48
2017-11-22T18:49:15.860Z,87.52
2017-11-22T18:51:43.577Z,87.67
2017-11-22T18:54:11.342Z,87.56
2017-11-22T18:56:39.054Z,87.64
2017-11-22T18:59:06.825Z,87.72
2017-11-22T19:01:34.527Z,87.75
2017-11-22T19:04:02.290Z,87.76
2017-11-22T19:06:30.036Z,87.94
2017-11-22T19:08:57.797Z,87.88
2017-11-22T19:11:25.613Z,87.75
2017-11-22T19:13:53.352Z,87.92
2017-11-22T19:16:21.156Z,88.03
2017-11-22T19:18:49.554Z,88.29
2017-11-22T19:21:17.287Z,88.59
2017-11-22T19:23:45.142Z,88.47
2017-11-22T19:26:12.947Z,88.57
2017-11-22T19:28:40.763Z,88.63
2017-11-22T19:31:17.154Z,88.44
2017-11-22T19:33:56.491Z,88.33
2017-11-22T19:36:24.286Z,88.38
2017-11-22T19:38:52.140Z,88.23
2017-11-22T19:41:26.762Z,88.04
2017-11-22T19:43:54.509Z,88.35
2017-11-22T19:46:23.394Z,88.36
2017-11-22T19:48:51.659Z,88.30
2017-11-22T19:51:19.794Z,88.15
2017-11-22T19:53:47.647Z,88.03
2017-11-22T19:56:16.913Z,87.94
2017-11-22T19:58:44.659Z,88.15
2017-11-22T20:01:13.298Z,88.17
2017-11-22T20:03:42.035Z,87.94
2017-11-22T20:06:11.322Z,87.95
2017-11-22T20:08:43.030Z,87.96
2017-11-22T20:11:10.797Z,88.06
2017-11-22T20:13:39.102Z,88.00
2017-11-22T20:16:13.446Z,88.17
2017-11-22T20:18:41.928Z,88.20
2017-11-22T20:21:10.073Z,88.01
2017-11-22T20:23:37.853Z,87.93
2017-11-22T20:26:05.689Z,87.79
2017-11-22T20:28:33.475Z,88.24
2017-11-22T20:31:02.062Z,88.63
2017-11-22T20:33:30.113Z,88.37
2017-11-22T20:35:58.279Z,88.53
2017-11-22T20:38:26.078Z,88.53
2017-11-22T20:40:54.314Z,88.58
2017-11-22T20:43:22.122Z,88.35
2017-11-22T20:58:49.980Z,88.67
2017-11-22T21:01:17.758Z,88.89
2017-11-22T21:03:45.648Z,88.89
2017-11-22T21:06:13.434Z,88.76
2017-11-22T21:08:41.200Z,88.59
2017-11-22T21:11:10.820Z,88.46
2017-11-22T21:13:38.575Z,88.48
2017-11-22T21:16:06.328Z,88.31
2017-11-22T21:18:34.114Z,88.52
2017-11-22T21:21:02.400Z,88.69
2017-11-22T21:23:30.207Z,89.07
2017-11-22T21:25:57.948Z,89.12
2017-11-22T21:28:25.776Z,88.87
2017-11-22T21:30:53.546Z,89.12
2017-11-22T21:33:21.410Z,88.76
2017-11-22T21:35:49.181Z,88.45
2017-11-22T21:38:16.941Z,88.55
2017-11-22T21:40:44.601Z,88.62
2017-11-22T21:43:14.609Z,88.64
2017-11-22T21:45:42.306Z,88.72
2017-11-22T21:48:10.004Z,88.81
2017-11-22T21:50:37.673Z,89.07
2017-11-22T21:53:05.639Z,89.77
2017-11-22T21:55:33.382Z,90.38
2017-11-22T21:58:01.005Z,90.02
2017-11-22T22:00:28.628Z,90.31
2017-11-22T22:02:56.271Z,90.77
2017-11-22T22:05:23.913Z,91.11
2017-11-22T22:07:51.516Z,91.63
2017-11-22T22:10:19.126Z,91.97
2017-11-22T22:12:46.744Z,92.30
2017-11-22T22:15:15.245Z,92.66
2017-11-22T22:17:42.950Z,92.40
2017-11-22T22:20:11.935Z,92.15
2017-11-22T22:22:39.525Z,91.98
2017-11-22T22:25:07.142Z,91.75
2017-11-22T22:27:34.784Z,91.52
2017-11-22T22:30:02.424Z,91.48
2017-11-22T22:32:30.039Z,91.73
2017-11-22T22:34:57.728Z,91.63
2017-11-22T22:37:25.349Z,91.19
2017-11-22T22:39:52.983Z,91.06
2017-11-22T22:42:20.793Z,90.91
2017-11-22T22:44:48.427Z,90.91
2017-11-22T22:47:16.076Z,90.78
2017-11-22T22:49:43.678Z,90.42
2017-11-22T22:52:14.200Z,90.57
2017-11-22T22:54:41.824Z,90.39
2017-11-22T22:57:09.441Z,90.68
2017-11-22T22:59:37.081Z,90.77
2017-11-22T23:02:04.672Z,91.36
2017-11-22T23:04:32.294Z,91.30
2017-11-22T23:06:59.929Z,91.09
2017-11-22T23:09:27.535Z,90.96
2017-11-22T23:11:56.501Z,90.58
2017-11-22T23:14:24.107Z,90.40
2017-11-22T23:16:51.705Z,91.73
2017-11-22T23:19:20.851Z,91.94
2017-11-22T23:21:48.504Z,92.37
2017-11-22T23:24:16.117Z,92.13
2017-11-22T23:26:43.763Z,91.80
2017-11-22T23:31:43.844Z,91.48
2017-11-22T23:34:11.433Z,91.24
2017-11-22T23:36:39.035Z,91.33
2017-11-22T23:39:06.664Z,91.26
2017-11-22T23:41:34.403Z,91.26
2017-11-22T23:44:02.035Z,91.34
2017-11-22T23:46:29.623Z,91.33
2017-11-22T23:48:57.241Z,91.23
2017-11-22T23:54:00.914Z,90.99
2017-11-22T23:56:28.537Z,90.99
2017-11-22T23:58:56.149Z,90.93
